Time;durP1;ratioP1;P1;durP2;ratioP2;P2;SDS_P1;SDS_P2;PMS_P1;PMS_P2;Temp;Humidity;BMP_temperature;BMP_pressure;BME280_temperature;BME280_humidity;BME280_pressure;Samples;Min_cycle;Max_cycle;Signal;HPM_P1;HPM_P2
2023/07/11 00:04:40;;;;;;;;;;;24.80;54.40;;;;;;10330473;28;94259;-69
2023/07/11 00:09:46;;;;;;;;;;;24.80;53.40;;;;;;10329218;28;93568;-68
2023/07/11 00:14:48;;;;;;;;;;;24.80;53.30;;;;;;10330664;28;92940;-63
2023/07/11 00:19:54;;;;;;;;;;;24.80;53.40;;;;;;10330201;28;93006;-68
2023/07/11 00:24:56;;;;;;;;;;;24.80;53.40;;;;;;10330352;28;95404;-68
2023/07/11 00:29:57;;;;;;;;;;;24.80;53.50;;;;;;10327699;28;95931;-67
2023/07/11 00:34:59;;;;;;;;;;;24.80;53.50;;;;;;10330692;28;94437;-68
2023/07/11 00:40:01;;;;;;;;;;;24.70;53.50;;;;;;10328876;28;94594;-68
2023/07/11 00:45:03;;;;;;;;;;;24.80;53.60;;;;;;10329924;28;94761;-69
2023/07/11 00:50:07;;;;;;;;;;;24.70;53.60;;;;;;10328319;28;93440;-68
2023/07/11 00:55:10;;;;;;;;;;;24.70;53.70;;;;;;10327934;28;93687;-69
2023/07/11 01:00:12;;;;;;;;;;;24.70;53.70;;;;;;10310914;28;94635;-63
2023/07/11 01:05:14;;;;;;;;;;;24.70;53.70;;;;;;10328571;28;92893;-63
2023/07/11 01:10:16;;;;;;;;;;;24.70;53.80;;;;;;10327816;28;93473;-63
2023/07/11 01:15:17;;;;;;;;;;;24.70;53.90;;;;;;10328110;28;93535;-63
2023/07/11 01:20:22;;;;;;;;;;;24.70;53.90;;;;;;10325868;28;97294;-63
2023/07/11 01:25:24;;;;;;;;;;;24.70;54.00;;;;;;10328285;28;94528;-62
2023/07/11 01:30:26;;;;;;;;;;;24.70;54.00;;;;;;10328044;28;94573;-63
2023/07/11 01:35:27;;;;;;;;;;;24.60;54.00;;;;;;10327945;28;93219;-63
2023/07/11 01:40:29;;;;;;;;;;;24.60;54.00;;;;;;10328440;28;93541;-63
2023/07/11 01:45:31;;;;;;;;;;;24.60;54.10;;;;;;10326968;28;92578;-63
2023/07/11 01:50:32;;;;;;;;;;;24.60;54.10;;;;;;10309124;28;93952;-67
2023/07/11 01:55:34;;;;;;;;;;;24.60;54.20;;;;;;10327879;28;92692;-69
2023/07/11 02:00:37;;;;;;;;;;;24.60;54.20;;;;;;10326891;28;92476;-69
2023/07/11 02:05:39;;;;;;;;;;;24.60;54.30;;;;;;10330136;28;93650;-68
2023/07/11 02:10:41;;;;;;;;;;;24.60;54.30;;;;;;10332387;28;96872;-69
2023/07/11 02:15:43;;;;;;;;;;;24.60;54.30;;;;;;10334214;28;93516;-68
2023/07/11 02:20:45;;;;;;;;;;;24.60;54.40;;;;;;10335314;28;93713;-67
2023/07/11 02:25:46;;;;;;;;;;;24.50;54.30;;;;;;10333688;28;94503;-67
2023/07/11 02:30:48;;;;;;;;;;;24.60;54.40;;;;;;10333420;28;93732;-68
2023/07/11 02:35:50;;;;;;;;;;;24.60;54.50;;;;;;10333991;28;93319;-67
2023/07/11 02:40:51;;;;;;;;;;;24.50;54.40;;;;;;10332987;28;92613;-68
2023/07/11 02:45:54;;;;;;;;;;;24.50;54.30;;;;;;10333476;28;92825;-67
2023/07/11 02:50:56;;;;;;;;;;;24.50;54.40;;;;;;10314802;28;94184;-67
2023/07/11 02:55:58;;;;;;;;;;;24.50;54.40;;;;;;10332359;28;94266;-69
2023/07/11 03:01:00;;;;;;;;;;;24.50;54.40;;;;;;10329189;28;95603;-68
2023/07/11 03:06:02;;;;;;;;;;;24.50;54.40;;;;;;10332943;28;93757;-68
2023/07/11 03:11:05;;;;;;;;;;;24.50;54.40;;;;;;10331556;28;93543;-68
2023/07/11 03:16:06;;;;;;;;;;;24.60;54.40;;;;;;10330510;28;94188;-68
2023/07/11 03:21:08;;;;;;;;;;;24.60;54.50;;;;;;10313987;28;93795;-68
2023/07/11 03:26:10;;;;;;;;;;;24.50;54.40;;;;;;10313929;28;93694;-68
2023/07/11 03:31:12;;;;;;;;;;;24.60;54.50;;;;;;10313614;28;93669;-69
2023/07/11 03:36:14;;;;;;;;;;;24.60;54.50;;;;;;10332514;28;92759;-68
2023/07/11 03:41:16;;;;;;;;;;;24.60;54.50;;;;;;10313137;28;93750;-68
2023/07/11 03:46:18;;;;;;;;;;;24.60;54.50;;;;;;10314161;28;93901;-69
2023/07/11 03:51:20;;;;;;;;;;;24.60;54.50;;;;;;10327581;28;96528;-69
2023/07/11 03:56:21;;;;;;;;;;;24.60;54.50;;;;;;10331714;28;94550;-69
2023/07/11 04:01:23;;;;;;;;;;;24.60;54.50;;;;;;10312230;28;94505;-70
2023/07/11 04:06:25;;;;;;;;;;;24.50;54.50;;;;;;10329862;28;93535;-63
2023/07/11 04:11:27;;;;;;;;;;;24.50;54.40;;;;;;10312166;28;93571;-63
2023/07/11 04:16:28;;;;;;;;;;;24.50;54.50;;;;;;10330423;28;93768;-63
2023/07/11 04:21:30;;;;;;;;;;;24.50;54.50;;;;;;10330905;28;94817;-63
2023/07/11 04:26:32;;;;;;;;;;;24.60;54.50;;;;;;10330514;28;92754;-63
2023/07/11 04:31:33;;;;;;;;;;;24.50;54.50;;;;;;10311317;28;94383;-63
2023/07/11 04:36:35;;;;;;;;;;;24.50;54.50;;;;;;10330172;28;93013;-69
2023/07/11 04:41:37;;;;;;;;;;;24.50;54.50;;;;;;10308384;28;96131;-68
2023/07/11 04:51:54;;;;;;;;;;;24.60;54.60;;;;;;10287249;28;93214;-63
2023/07/11 04:56:57;;;;;;;;;;;24.60;54.60;;;;;;10255063;28;93677;-64
2023/07/11 05:01:59;;;;;;;;;;;24.50;54.60;;;;;;10287445;28;93066;-63
2023/07/11 05:07:00;;;;;;;;;;;24.50;54.60;;;;;;10287964;28;94263;-63
2023/07/11 05:12:02;;;;;;;;;;;24.50;54.70;;;;;;10287262;28;94550;-63
2023/07/11 05:17:04;;;;;;;;;;;24.50;54.70;;;;;;10289131;28;93783;-63
2023/07/11 05:22:06;;;;;;;;;;;24.60;54.70;;;;;;10288453;28;94565;-63
2023/07/11 05:27:08;;;;;;;;;;;24.50;54.70;;;;;;10286767;28;92777;-63
2023/07/11 05:32:10;;;;;;;;;;;24.60;54.80;;;;;;10284285;28;95890;-63
2023/07/11 05:37:12;;;;;;;;;;;24.50;54.90;;;;;;10288258;28;93816;-62
2023/07/11 05:42:13;;;;;;;;;;;24.50;55.50;;;;;;10291360;28;95892;-66
2023/07/11 05:47:15;;;;;;;;;;;24.50;55.50;;;;;;10290314;28;93586;-69
2023/07/11 05:52:17;;;;;;;;;;;24.50;56.00;;;;;;10292618;28;93752;-70
2023/07/11 05:57:18;;;;;;;;;;;24.50;55.70;;;;;;10293399;28;94573;-67
2023/07/11 06:02:20;;;;;;;;;;;24.50;57.50;;;;;;10291529;28;93496;-67
2023/07/11 06:07:22;;;;;;;;;;;24.50;57.50;;;;;;10292200;28;93690;-68
2023/07/11 06:12:24;;;;;;;;;;;24.50;57.30;;;;;;10292215;28;93743;-69
2023/07/11 06:17:27;;;;;;;;;;;24.60;56.90;;;;;;10292378;28;94526;-69
2023/07/11 06:22:29;;;;;;;;;;;24.60;57.00;;;;;;10270996;28;95873;-69
2023/07/11 06:27:30;;;;;;;;;;;24.60;60.00;;;;;;10292518;28;94524;-68
2023/07/11 06:32:32;;;;;;;;;;;24.60;59.60;;;;;;10291945;28;94521;-68
2023/07/11 06:37:34;;;;;;;;;;;24.60;59.50;;;;;;10292097;28;93653;-68
2023/07/11 06:42:36;;;;;;;;;;;24.70;59.60;;;;;;10292141;28;93833;-69
2023/07/11 06:47:37;;;;;;;;;;;24.70;59.70;;;;;;10291299;28;93452;-68
2023/07/11 06:52:39;;;;;;;;;;;24.70;59.50;;;;;;10290632;28;93420;-69
2023/07/11 06:57:41;;;;;;;;;;;24.80;59.50;;;;;;10292540;28;93876;-69
2023/07/11 07:02:44;;;;;;;;;;;24.80;58.60;;;;;;10292021;28;94610;-69
2023/07/11 07:07:45;;;;;;;;;;;24.80;58.50;;;;;;10289485;28;93772;-69
2023/07/11 07:12:47;;;;;;;;;;;24.80;58.50;;;;;;10289016;28;96916;-69
2023/07/11 07:17:49;;;;;;;;;;;24.80;58.50;;;;;;10290530;28;94727;-67
2023/07/11 07:22:50;;;;;;;;;;;24.90;58.60;;;;;;10289195;28;94201;-67
2023/07/11 07:27:52;;;;;;;;;;;24.90;58.70;;;;;;10286715;28;93549;-66
2023/07/11 07:32:54;;;;;;;;;;;24.90;58.40;;;;;;10269971;28;94880;-66
2023/07/11 07:37:55;;;;;;;;;;;24.90;58.30;;;;;;10286192;28;93817;-66
2023/07/11 07:42:57;;;;;;;;;;;24.90;58.30;;;;;;10270228;28;94816;-66
2023/07/11 07:47:59;;;;;;;;;;;24.90;58.30;;;;;;10287431;28;93626;-65
2023/07/11 07:53:01;;;;;;;;;;;24.90;58.00;;;;;;10289822;28;94693;-65
2023/07/11 07:58:03;;;;;;;;;;;24.90;57.90;;;;;;10272273;28;94531;-66
2023/07/11 08:03:04;;;;;;;;;;;24.90;57.80;;;;;;10286986;28;96971;-66
2023/07/11 08:08:06;;;;;;;;;;;24.90;57.70;;;;;;10288455;28;93916;-66
2023/07/11 08:13:08;;;;;;;;;;;24.90;57.60;;;;;;10289478;28;94527;-66
2023/07/11 08:18:10;;;;;;;;;;;24.90;57.50;;;;;;10271280;28;97148;-66
2023/07/11 08:23:12;;;;;;;;;;;24.90;57.40;;;;;;10288350;28;94422;-67
2023/07/11 08:28:13;;;;;;;;;;;24.90;57.40;;;;;;10288525;28;94522;-65
2023/07/11 08:33:16;;;;;;;;;;;24.90;58.40;;;;;;10288173;28;94530;-65
2023/07/11 08:38:18;;;;;;;;;;;24.90;57.30;;;;;;10271268;28;92272;-66
2023/07/11 08:43:23;;;;;;;;;;;24.90;57.20;;;;;;10287507;28;93666;-66
2023/07/11 08:48:38;;;;;;;;;;;25.00;57.10;;;;;;10288605;28;93670;-66
2023/07/11 08:53:42;;;;;;;;;;;25.00;57.00;;;;;;10285306;28;96152;-66
2023/07/11 08:58:45;;;;;;;;;;;25.00;56.90;;;;;;10288850;28;93815;-67
2023/07/11 09:03:47;;;;;;;;;;;25.00;56.90;;;;;;10287579;28;94544;-66
2023/07/11 09:08:54;;;;;;;;;;;25.00;56.80;;;;;;10270285;28;94485;-66
2023/07/11 09:14:14;;;;;;;;;;;25.00;56.90;;;;;;10287165;28;93461;-66
2023/07/11 09:19:25;;;;;;;;;;;24.90;56.90;;;;;;10287737;28;93827;-66
2023/07/11 09:24:33;;;;;;;;;;;24.90;56.90;;;;;;10287778;28;95244;-66
2023/07/11 09:29:35;;;;;;;;;;;24.90;57.00;;;;;;10270230;28;92815;-65
2023/07/11 09:34:37;;;;;;;;;;;24.90;56.90;;;;;;10287189;28;94214;-66
2023/07/11 09:39:43;;;;;;;;;;;24.90;57.00;;;;;;10286568;28;94056;-66
2023/07/11 09:45:13;;;;;;;;;;;24.90;56.90;;;;;;10283867;28;95025;-66
2023/07/11 09:50:30;;;;;;;;;;;25.00;56.90;;;;;;10273724;28;94710;-65
2023/07/11 09:55:44;;;;;;;;;;;25.00;56.70;;;;;;10287806;28;94027;-66
2023/07/11 10:00:51;;;;;;;;;;;25.10;56.50;;;;;;10270348;28;94534;-66
2023/07/11 10:05:53;;;;;;;;;;;25.20;56.20;;;;;;10286916;28;94729;-65
2023/07/11 10:11:00;;;;;;;;;;;25.30;56.00;;;;;;10287171;28;92585;-66
2023/07/11 10:16:04;;;;;;;;;;;25.30;55.90;;;;;;10286147;28;93023;-66
2023/07/11 10:21:15;;;;;;;;;;;25.40;55.70;;;;;;10286949;28;93099;-66
2023/07/11 10:26:22;;;;;;;;;;;25.40;55.60;;;;;;10286724;28;94214;-66
2023/07/11 10:31:29;;;;;;;;;;;25.40;55.50;;;;;;10293798;28;94498;-66
2023/07/11 10:36:46;;;;;;;;;;;25.50;55.50;;;;;;10291448;28;95946;-66
2023/07/11 10:41:57;;;;;;;;;;;25.50;55.40;;;;;;10275876;28;93064;-65
2023/07/11 10:46:59;;;;;;;;;;;25.50;55.20;;;;;;10292119;28;93815;-65
2023/07/11 10:52:01;;;;;;;;;;;25.50;55.10;;;;;;10274700;28;94454;-65
2023/07/11 10:57:09;;;;;;;;;;;25.60;55.20;;;;;;10274979;28;113758;-66
2023/07/11 11:02:16;;;;;;;;;;;25.50;55.10;;;;;;10291958;28;92873;-65
2023/07/11 11:07:34;;;;;;;;;;;25.50;55.10;;;;;;10292964;28;93775;-65
2023/07/11 11:12:47;;;;;;;;;;;25.50;55.20;;;;;;10293368;28;93557;-65
2023/07/11 11:18:07;;;;;;;;;;;25.50;55.10;;;;;;10274714;28;94870;-65
2023/07/11 11:23:21;;;;;;;;;;;25.50;55.20;;;;;;10274435;28;94457;-66
2023/07/11 11:28:29;;;;;;;;;;;25.50;55.20;;;;;;10271947;28;97079;-65
2023/07/11 11:33:44;;;;;;;;;;;25.50;55.20;;;;;;10291996;28;94520;-65
2023/07/11 11:38:57;;;;;;;;;;;25.50;56.30;;;;;;10291583;28;94455;-66
2023/07/11 11:44:00;;;;;;;;;;;25.40;55.20;;;;;;10289735;28;93486;-66
2023/07/11 11:49:07;;;;;;;;;;;25.50;55.40;;;;;;10291183;28;93568;-65
2023/07/11 11:54:34;;;;;;;;;;;25.50;55.40;;;;;;10276265;28;96352;-65
2023/07/11 11:59:37;;;;;;;;;;;25.50;55.50;;;;;;10290126;28;93530;-66
2023/07/11 12:04:52;;;;;;;;;;;25.50;55.40;;;;;;10290383;28;93849;-65
2023/07/11 12:09:56;;;;;;;;;;;25.50;55.50;;;;;;10272295;28;93632;-65
2023/07/11 12:14:59;;;;;;;;;;;25.40;55.50;;;;;;10272472;28;93692;-65
2023/07/11 12:20:01;;;;;;;;;;;25.40;55.40;;;;;;10286852;28;95674;-66
2023/07/11 12:25:06;;;;;;;;;;;25.50;55.50;;;;;;10272882;28;94669;-65
2023/07/11 12:30:14;;;;;;;;;;;25.50;55.50;;;;;;10289305;28;94075;-66
2023/07/11 12:35:16;;;;;;;;;;;25.50;55.50;;;;;;10289241;28;94518;-66
2023/07/11 12:40:17;;;;;;;;;;;25.50;55.60;;;;;;10288620;28;94477;-65
2023/07/11 12:45:23;;;;;;;;;;;25.50;55.60;;;;;;10288645;28;92581;-65
2023/07/11 12:50:28;;;;;;;;;;;25.50;55.60;;;;;;10285962;28;95032;-65
2023/07/11 12:55:30;;;;;;;;;;;25.40;55.60;;;;;;10255107;28;93705;-65
2023/07/11 13:00:34;;;;;;;;;;;25.50;55.60;;;;;;10288389;28;93888;-65
2023/07/11 13:05:36;;;;;;;;;;;25.50;55.70;;;;;;10270250;28;93562;-65
2023/07/11 13:10:38;;;;;;;;;;;25.50;55.70;;;;;;10286086;28;96884;-65
2023/07/11 13:15:40;;;;;;;;;;;25.50;55.70;;;;;;10270647;28;94410;-64
2023/07/11 13:20:42;;;;;;;;;;;25.50;55.70;;;;;;10272066;28;94206;-65
2023/07/11 13:25:44;;;;;;;;;;;25.50;55.80;;;;;;10288100;28;94271;-65
2023/07/11 13:30:53;;;;;;;;;;;25.50;55.80;;;;;;10287419;28;92723;-65
2023/07/11 13:36:03;;;;;;;;;;;25.50;55.80;;;;;;10287565;28;94520;-65
2023/07/11 13:41:16;;;;;;;;;;;25.40;55.70;;;;;;10285599;28;93628;-65
2023/07/11 13:46:18;;;;;;;;;;;25.50;55.90;;;;;;10287694;28;92766;-65
2023/07/11 13:51:23;;;;;;;;;;;25.40;55.80;;;;;;10286750;28;93866;-65
2023/07/11 13:56:25;;;;;;;;;;;25.40;55.90;;;;;;10287372;28;93564;-65
2023/07/11 14:01:33;;;;;;;;;;;25.40;55.90;;;;;;10287599;28;96914;-65
2023/07/11 14:06:36;;;;;;;;;;;25.40;56.00;;;;;;10276010;28;93555;-64
2023/07/11 14:11:38;;;;;;;;;;;25.40;56.10;;;;;;10293682;28;94721;-65
2023/07/11 14:16:40;;;;;;;;;;;25.40;56.10;;;;;;10293502;28;94617;-65
2023/07/11 14:21:42;;;;;;;;;;;25.40;56.10;;;;;;10294198;28;94607;-65
2023/07/11 14:26:44;;;;;;;;;;;25.40;56.20;;;;;;10292493;28;94600;-66
2023/07/11 14:31:47;;;;;;;;;;;25.40;56.10;;;;;;10292891;28;94649;-65
2023/07/11 14:36:49;;;;;;;;;;;25.40;56.20;;;;;;10292931;28;94000;-66
2023/07/11 14:41:51;;;;;;;;;;;25.40;56.30;;;;;;10292273;28;93708;-66
2023/07/11 14:46:53;;;;;;;;;;;25.40;56.20;;;;;;10292478;28;93499;-65
2023/07/11 14:51:55;;;;;;;;;;;25.40;56.30;;;;;;10249341;28;97372;-65
2023/07/11 14:56:57;;;;;;;;;;;25.50;56.40;;;;;;10251563;28;94575;-66
2023/07/11 15:02:21;;;;;;;;;;;25.50;56.50;;;;;;10250732;28;93507;-65
2023/07/11 15:07:23;;;;;;;;;;;25.50;56.50;;;;;;10249654;28;94447;-65
2023/07/11 15:12:27;;;;;;;;;;;25.50;56.60;;;;;;10250736;28;93304;-65
2023/07/11 15:17:32;;;;;;;;;;;25.50;56.60;;;;;;10251341;28;94270;-65
2023/07/11 15:22:34;;;;;;;;;;;25.50;56.60;;;;;;10251179;28;94567;-65
2023/07/11 15:27:36;;;;;;;;;;;25.50;56.70;;;;;;10250466;28;92836;-65
2023/07/11 15:32:37;;;;;;;;;;;25.50;56.80;;;;;;10250368;28;94201;-64
2023/07/11 15:37:39;;;;;;;;;;;25.50;56.90;;;;;;10250376;28;93438;-65
2023/07/11 15:42:41;;;;;;;;;;;25.40;56.80;;;;;;10248153;28;96640;-65
2023/07/11 15:47:43;;;;;;;;;;;25.50;57.00;;;;;;10255866;28;93717;-65
2023/07/11 15:52:44;;;;;;;;;;;25.50;57.00;;;;;;10290052;28;93625;-65
2023/07/11 15:57:46;;;;;;;;;;;25.50;57.00;;;;;;10290655;28;93479;-65
2023/07/11 16:02:48;;;;;;;;;;;25.50;57.00;;;;;;10289952;28;93640;-65
2023/07/11 16:07:50;;;;;;;;;;;25.50;57.10;;;;;;10289238;28;93516;-65
2023/07/11 16:12:52;;;;;;;;;;;25.50;57.10;;;;;;10290048;28;95175;-65
2023/07/11 16:17:54;;;;;;;;;;;25.50;57.10;;;;;;10288685;28;92917;-65
2023/07/11 16:22:56;;;;;;;;;;;25.50;57.10;;;;;;10289991;28;94526;-66
2023/07/11 16:27:58;;;;;;;;;;;25.50;57.10;;;;;;10288479;28;93978;-66
2023/07/11 16:33:01;;;;;;;;;;;25.50;57.20;;;;;;10253868;28;95873;-66
2023/07/11 16:38:05;;;;;;;;;;;25.50;57.20;;;;;;10288671;28;92474;-66
2023/07/11 16:43:08;;;;;;;;;;;25.50;57.30;;;;;;10288142;28;92851;-66
2023/07/11 16:48:11;;;;;;;;;;;25.50;57.30;;;;;;10288325;28;94525;-66
2023/07/11 16:53:16;;;;;;;;;;;25.50;57.40;;;;;;10270631;28;94093;-66
2023/07/11 16:58:19;;;;;;;;;;;25.50;57.30;;;;;;10271142;28;92876;-66
2023/07/11 17:03:21;;;;;;;;;;;25.50;57.30;;;;;;10288492;28;94697;-68
2023/07/11 17:08:26;;;;;;;;;;;25.50;57.40;;;;;;10289601;28;93013;-66
2023/07/11 17:13:28;;;;;;;;;;;25.50;57.40;;;;;;10287984;28;92732;-66
2023/07/11 17:18:30;;;;;;;;;;;25.50;57.40;;;;;;10288462;28;94492;-66
2023/07/11 17:23:32;;;;;;;;;;;25.60;57.50;;;;;;10284939;28;96219;-66
2023/07/11 17:28:34;;;;;;;;;;;25.50;57.40;;;;;;10287030;28;93549;-65
2023/07/11 17:33:36;;;;;;;;;;;25.50;58.50;;;;;;10287252;28;93476;-66
2023/07/11 17:38:37;;;;;;;;;;;25.60;57.50;;;;;;10293465;28;94020;-66
2023/07/11 17:43:39;;;;;;;;;;;25.60;57.50;;;;;;10295221;28;94535;-66
2023/07/11 17:48:47;;;;;;;;;;;25.60;57.50;;;;;;10278755;28;93460;-65
2023/07/11 17:53:49;;;;;;;;;;;25.60;57.50;;;;;;10293994;28;93319;-65
2023/07/11 17:58:52;;;;;;;;;;;25.60;57.50;;;;;;10294479;28;93826;-67
2023/07/11 18:03:53;;;;;;;;;;;25.60;57.60;;;;;;10293641;28;93599;-65
2023/07/11 18:08:55;;;;;;;;;;;25.60;57.60;;;;;;10293975;28;94406;-65
2023/07/11 18:13:57;;;;;;;;;;;25.70;57.70;;;;;;10274249;28;97037;-65
2023/07/11 18:18:59;;;;;;;;;;;25.70;57.70;;;;;;10293026;28;93451;-66
2023/07/11 18:24:01;;;;;;;;;;;25.60;57.70;;;;;;10294706;28;94424;-66
2023/07/11 18:29:03;;;;;;;;;;;25.60;57.80;;;;;;10293365;28;94907;-65
2023/07/11 18:34:04;;;;;;;;;;;25.60;57.80;;;;;;10292881;28;93531;-65
2023/07/11 18:39:08;;;;;;;;;;;25.60;57.80;;;;;;10292832;28;94433;-65
2023/07/11 18:44:10;;;;;;;;;;;25.60;57.90;;;;;;10291589;28;93874;-66
2023/07/11 18:49:12;;;;;;;;;;;25.60;57.90;;;;;;10291769;28;92535;-65
2023/07/11 18:54:13;;;;;;;;;;;25.60;57.90;;;;;;10291242;28;93522;-65
2023/07/11 18:59:15;;;;;;;;;;;25.50;57.90;;;;;;10292384;28;94442;-66
2023/07/11 19:04:17;;;;;;;;;;;25.50;57.90;;;;;;10288989;28;96374;-65
2023/07/11 19:09:18;;;;;;;;;;;25.50;57.90;;;;;;10290852;28;93604;-65
2023/07/11 19:14:20;;;;;;;;;;;25.50;57.90;;;;;;10291659;28;93570;-66
2023/07/11 19:19:27;;;;;;;;;;;25.50;57.90;;;;;;10274960;28;94484;-65
2023/07/11 19:24:28;;;;;;;;;;;25.50;57.90;;;;;;10291491;28;93834;-65
2023/07/11 19:29:30;;;;;;;;;;;25.50;57.90;;;;;;10290892;28;93475;-66
2023/07/11 19:34:32;;;;;;;;;;;25.50;57.90;;;;;;10291011;28;94180;-66
2023/07/11 19:39:33;;;;;;;;;;;25.50;57.90;;;;;;10291283;28;93763;-65
2023/07/11 19:44:35;;;;;;;;;;;25.50;58.00;;;;;;10291320;28;94545;-65
2023/07/11 19:49:37;;;;;;;;;;;25.50;58.00;;;;;;10290098;28;94016;-65
2023/07/11 19:54:39;;;;;;;;;;;25.50;58.10;;;;;;10288213;28;97128;-65
2023/07/11 19:59:40;;;;;;;;;;;25.50;58.10;;;;;;10286891;28;94280;-66
2023/07/11 20:04:43;;;;;;;;;;;25.50;58.10;;;;;;10276915;28;93507;-65
2023/07/11 20:09:45;;;;;;;;;;;25.50;58.10;;;;;;10268498;28;95075;-66
2023/07/11 20:14:47;;;;;;;;;;;25.40;58.00;;;;;;10284398;28;94511;-65
2023/07/11 20:19:50;;;;;;;;;;;25.40;58.10;;;;;;10288726;28;93668;-66
2023/07/11 20:24:52;;;;;;;;;;;25.40;58.10;;;;;;10289453;28;93440;-65
2023/07/11 20:29:54;;;;;;;;;;;25.40;58.20;;;;;;10289620;28;92875;-66
2023/07/11 20:34:55;;;;;;;;;;;25.40;58.20;;;;;;10289528;28;93580;-65
2023/07/11 20:39:57;;;;;;;;;;;25.40;58.30;;;;;;10288154;28;95103;-65
2023/07/11 20:44:59;;;;;;;;;;;25.40;58.40;;;;;;10284908;28;95896;-65
2023/07/11 20:50:00;;;;;;;;;;;25.40;58.40;;;;;;10287857;28;94699;-65
2023/07/11 20:55:02;;;;;;;;;;;25.40;58.40;;;;;;10288221;28;94266;-64
2023/07/11 21:00:30;;;;;;;;;;;25.40;58.40;;;;;;10272382;28;93562;-65
2023/07/11 21:05:34;;;;;;;;;;;25.40;58.60;;;;;;10284335;28;95018;-65
2023/07/11 21:10:38;;;;;;;;;;;25.40;58.60;;;;;;10287022;28;93668;-65
2023/07/11 21:15:41;;;;;;;;;;;25.30;58.60;;;;;;10287545;28;92941;-65
2023/07/11 21:20:44;;;;;;;;;;;25.40;58.70;;;;;;10288692;28;92917;-65
2023/07/11 21:25:46;;;;;;;;;;;25.40;58.70;;;;;;10287632;28;94585;-65
2023/07/11 21:30:49;;;;;;;;;;;25.40;58.90;;;;;;10288128;28;93621;-65
2023/07/11 21:35:52;;;;;;;;;;;25.40;58.90;;;;;;10283105;28;95942;-65
2023/07/11 21:40:55;;;;;;;;;;;25.30;58.80;;;;;;10288130;28;94486;-65
2023/07/11 21:45:57;;;;;;;;;;;25.30;58.90;;;;;;10288081;28;94620;-65
2023/07/11 21:50:59;;;;;;;;;;;25.30;58.90;;;;;;10287001;28;94405;-66
2023/07/11 21:56:01;;;;;;;;;;;25.40;59.10;;;;;;10287866;28;94619;-65
2023/07/11 22:01:03;;;;;;;;;;;25.30;59.10;;;;;;10268312;28;94698;-66
2023/07/11 22:06:22;;;;;;;;;;;25.30;59.10;;;;;;10285171;28;94680;-66
2023/07/11 22:11:24;;;;;;;;;;;25.30;59.10;;;;;;10269707;28;92792;-65
2023/07/11 22:16:27;;;;;;;;;;;25.30;59.10;;;;;;10286668;28;94643;-65
2023/07/11 22:21:29;;;;;;;;;;;25.30;59.30;;;;;;10287524;28;93406;-66
2023/07/11 22:26:30;;;;;;;;;;;25.30;59.10;;;;;;10290642;28;96943;-62
2023/07/11 22:31:33;;;;;;;;;;;25.30;59.20;;;;;;10292832;28;94731;-61
2023/07/11 22:36:34;;;;;;;;;;;25.30;59.10;;;;;;10292715;28;93533;-61
2023/07/11 22:41:36;;;;;;;;;;;25.30;59.10;;;;;;10292327;28;94707;-62
2023/07/11 22:46:38;;;;;;;;;;;25.30;59.10;;;;;;10274443;28;93783;-62
2023/07/11 22:51:40;;;;;;;;;;;25.30;59.10;;;;;;10291468;28;94186;-62
2023/07/11 22:56:42;;;;;;;;;;;25.30;59.10;;;;;;10293105;28;93580;-62
2023/07/11 23:01:43;;;;;;;;;;;25.30;59.10;;;;;;10275854;28;93686;-62
2023/07/11 23:06:45;;;;;;;;;;;25.30;59.10;;;;;;10291792;28;93684;-62
2023/07/11 23:11:47;;;;;;;;;;;25.30;59.00;;;;;;10290209;28;93554;-62
2023/07/11 23:16:49;;;;;;;;;;;25.30;58.90;;;;;;10288278;28;95969;-62
2023/07/11 23:21:50;;;;;;;;;;;25.30;58.90;;;;;;10291292;28;94430;-62
2023/07/11 23:26:52;;;;;;;;;;;25.30;58.90;;;;;;10290790;28;94614;-62
2023/07/11 23:31:54;;;;;;;;;;;25.30;58.80;;;;;;10290612;28;93893;-61
2023/07/11 23:36:55;;;;;;;;;;;25.30;58.90;;;;;;10290156;28;94461;-62
2023/07/11 23:41:57;;;;;;;;;;;25.30;58.80;;;;;;10290723;28;93784;-61
2023/07/11 23:46:59;;;;;;;;;;;25.30;58.80;;;;;;10289876;28;93406;-62
2023/07/11 23:52:01;;;;;;;;;;;25.30;58.70;;;;;;10291710;28;92648;-62
2023/07/11 23:57:02;;;;;;;;;;;25.30;58.70;;;;;;10289850;28;94624;-62
